createdAt,value
2022-10-09T00:01:10.502Z,4.67
2022-10-09T00:04:17.268Z,4.60
2022-10-09T00:07:20.509Z,5.13
2022-10-09T00:10:24.624Z,5.57
2022-10-09T00:13:31.607Z,4.90
2022-10-09T00:16:35.028Z,5.10
2022-10-09T00:19:38.381Z,5.23
2022-10-09T00:22:47.126Z,4.57
2022-10-09T00:25:56.100Z,6.67
2022-10-09T00:29:00.759Z,4.53
2022-10-09T00:32:03.979Z,5.03
2022-10-09T00:35:13.393Z,4.40
2022-10-09T00:38:17.362Z,5.13
2022-10-09T00:41:35.696Z,4.70
2022-10-09T00:44:57.777Z,4.90
2022-10-09T00:48:04.675Z,4.73
2022-10-09T00:51:08.918Z,3.90
2022-10-09T00:54:16.727Z,3.97
2022-10-09T00:57:20.642Z,3.60
2022-10-09T01:00:26.772Z,5.00
2022-10-09T01:03:30.003Z,4.73
2022-10-09T01:06:50.536Z,4.23
2022-10-09T01:10:00.700Z,4.53
2022-10-09T01:13:11.322Z,5.47
2022-10-09T01:16:26.785Z,4.87
2022-10-09T01:20:02.347Z,4.70
2022-10-09T01:23:27.971Z,4.87
2022-10-09T01:26:56.606Z,4.80
2022-10-09T01:30:05.407Z,5.40
2022-10-09T01:33:12.049Z,5.60
2022-10-09T01:36:17.681Z,5.13
2022-10-09T01:39:35.121Z,5.00
2022-10-09T01:43:09.282Z,4.83
2022-10-09T01:46:23.111Z,5.23
2022-10-09T01:49:42.486Z,5.00
2022-10-09T01:52:52.061Z,4.97
2022-10-09T01:56:05.164Z,4.83
2022-10-09T01:59:16.003Z,4.10
2022-10-09T02:02:20.921Z,5.00
2022-10-09T02:05:29.669Z,5.30
2022-10-09T02:08:36.249Z,4.50
2022-10-09T02:11:42.964Z,4.60
2022-10-09T02:14:50.416Z,5.33
2022-10-09T02:18:05.856Z,6.30
2022-10-09T02:21:16.345Z,6.10
2022-10-09T02:24:23.230Z,6.43
2022-10-09T02:27:29.891Z,5.47
2022-10-09T02:30:42.926Z,4.63
2022-10-09T02:33:45.867Z,5.47
2022-10-09T02:36:50.383Z,4.20
2022-10-09T02:39:53.740Z,4.77
2022-10-09T02:42:56.670Z,4.70
2022-10-09T02:46:00.938Z,4.57
2022-10-09T02:49:04.153Z,4.73
2022-10-09T02:52:07.820Z,4.17
2022-10-09T02:55:11.230Z,4.60
2022-10-09T02:58:19.867Z,4.80
2022-10-09T03:01:24.615Z,4.83
2022-10-09T03:04:27.558Z,4.47
2022-10-09T03:07:30.499Z,4.63
2022-10-09T03:10:33.707Z,4.87
2022-10-09T03:13:36.880Z,6.40
2022-10-09T03:16:41.448Z,5.40
2022-10-09T03:19:44.407Z,5.70
2022-10-09T03:22:47.708Z,5.23
2022-10-09T03:25:57.739Z,5.80
2022-10-09T03:29:00.718Z,5.57
2022-10-09T03:32:05.103Z,5.37
2022-10-09T03:35:09.209Z,5.33
2022-10-09T03:38:12.354Z,4.90
2022-10-09T03:41:15.944Z,5.30
2022-10-09T03:44:18.997Z,5.33
2022-10-09T03:47:23.241Z,5.47
2022-10-09T03:50:26.468Z,5.03
2022-10-09T03:53:29.435Z,5.13
2022-10-09T03:56:32.400Z,5.07
2022-10-09T03:59:35.330Z,4.27
2022-10-09T04:02:39.601Z,4.37
2022-10-09T04:05:43.146Z,3.90
2022-10-09T04:08:46.054Z,4.57
2022-10-09T04:11:49.303Z,4.53
2022-10-09T04:14:52.549Z,5.10
2022-10-09T04:17:57.063Z,4.67
2022-10-09T04:21:00.197Z,4.70
2022-10-09T04:24:03.722Z,4.73
2022-10-09T04:27:06.722Z,5.67
2022-10-09T04:30:11.124Z,4.67
2022-10-09T04:33:15.536Z,5.00
2022-10-09T04:36:18.891Z,4.57
2022-10-09T04:39:22.032Z,4.90
2022-10-09T04:42:24.980Z,4.10
2022-10-09T04:45:27.984Z,4.57
2022-10-09T04:48:32.317Z,4.50
2022-10-09T04:51:35.255Z,4.10
2022-10-09T04:54:38.171Z,4.50
2022-10-09T04:57:41.321Z,4.87
2022-10-09T05:00:45.901Z,4.93
2022-10-09T05:03:50.766Z,4.40
2022-10-09T05:06:53.682Z,4.60
2022-10-09T05:09:57.756Z,5.33
2022-10-09T05:13:01.055Z,4.93
2022-10-09T05:16:05.138Z,6.27
2022-10-09T05:19:09.771Z,5.60
2022-10-09T05:22:12.882Z,5.40
2022-10-09T05:25:16.439Z,5.80
2022-10-09T05:28:19.435Z,5.23
2022-10-09T05:31:25.181Z,6.10
2022-10-09T05:34:29.638Z,6.30
2022-10-09T05:37:32.678Z,6.07
2022-10-09T05:40:35.584Z,7.00
2022-10-09T05:43:41.688Z,6.60
2022-10-09T05:46:44.643Z,6.43
2022-10-09T05:49:49.018Z,6.87
2022-10-09T05:52:52.026Z,7.33
2022-10-09T05:55:55.026Z,8.03
2022-10-09T05:59:00.587Z,7.93
2022-10-09T06:02:03.706Z,8.80
2022-10-09T06:05:09.251Z,8.97
2022-10-09T06:08:12.156Z,9.80
2022-10-09T06:11:17.498Z,10.07
2022-10-09T06:14:21.962Z,12.53
2022-10-09T06:17:25.246Z,9.43
2022-10-09T06:20:29.563Z,9.20
2022-10-09T06:23:33.031Z,14.90
2022-10-09T06:26:36.186Z,8.00
2022-10-09T06:29:39.349Z,12.33
2022-10-09T06:32:42.468Z,12.50
2022-10-09T06:35:46.783Z,14.00
2022-10-09T06:38:50.341Z,17.70
2022-10-09T06:41:53.473Z,14.93
2022-10-09T06:45:06.938Z,14.10
2022-10-09T06:48:09.920Z,9.30
2022-10-09T06:51:16.842Z,10.77
2022-10-09T06:54:19.779Z,11.40
2022-10-09T06:57:22.756Z,8.27
2022-10-09T07:00:26.233Z,8.63
2022-10-09T07:03:29.306Z,8.17
2022-10-09T07:06:36.724Z,11.50
2022-10-09T07:09:39.819Z,9.67
2022-10-09T07:12:42.748Z,7.80
2022-10-09T07:15:46.703Z,13.87
2022-10-09T07:18:50.418Z,8.27
2022-10-09T07:21:54.714Z,7.67
2022-10-09T07:24:57.671Z,9.40
2022-10-09T07:28:00.588Z,7.10
2022-10-09T07:31:04.434Z,7.03
2022-10-09T07:34:08.092Z,6.90
2022-10-09T07:37:12.430Z,7.60
2022-10-09T07:40:15.443Z,6.47
2022-10-09T07:43:18.443Z,7.40
2022-10-09T07:46:23.804Z,6.20
2022-10-09T07:49:26.925Z,7.30
2022-10-09T07:52:31.297Z,8.40
2022-10-09T07:55:34.227Z,6.90
2022-10-09T07:58:37.186Z,7.20
2022-10-09T08:01:40.753Z,11.73
2022-10-09T08:04:43.717Z,9.27
2022-10-09T08:07:48.235Z,6.70
2022-10-09T08:10:51.157Z,8.20
2022-10-09T08:13:55.081Z,7.07
2022-10-09T08:16:57.995Z,6.40
2022-10-09T08:20:00.936Z,7.03
2022-10-09T08:23:05.824Z,7.43
2022-10-09T08:26:15.128Z,7.00
2022-10-09T08:29:20.863Z,8.97
2022-10-09T08:32:23.778Z,6.43
2022-10-09T08:35:27.511Z,6.93
2022-10-09T08:38:46.860Z,6.50
2022-10-09T08:41:53.923Z,6.87
2022-10-09T08:44:57.666Z,6.63
2022-10-09T08:48:05.921Z,6.83
2022-10-09T08:51:21.622Z,6.80
2022-10-09T08:54:34.880Z,6.53
2022-10-09T08:57:37.821Z,6.07
2022-10-09T09:00:46.958Z,6.53
2022-10-09T09:04:13.663Z,7.13
2022-10-09T09:07:27.784Z,5.93
2022-10-09T09:10:41.586Z,6.77
2022-10-09T09:13:57.856Z,6.30
2022-10-09T09:17:10.361Z,6.40
2022-10-09T09:20:22.453Z,6.67
2022-10-09T09:23:30.520Z,6.03
2022-10-09T09:26:35.185Z,7.43
2022-10-09T09:29:43.661Z,5.67
2022-10-09T09:32:56.457Z,5.23
2022-10-09T09:36:08.744Z,4.80
2022-10-09T09:40:07.761Z,5.50
2022-10-09T09:42:37.254Z,4.90
2022-10-09T09:45:40.180Z,4.75
2022-10-09T09:48:45.861Z,4.27
2022-10-09T09:51:50.335Z,6.17
2022-10-09T09:54:53.484Z,4.53
2022-10-09T09:58:04.597Z,4.45
2022-10-09T10:01:08.960Z,3.90
2022-10-09T10:04:22.214Z,3.95
2022-10-09T10:07:30.848Z,4.78
2022-10-09T10:10:33.784Z,4.43
2022-10-09T10:13:49.004Z,6.07
2022-10-09T10:16:55.160Z,4.78
2022-10-09T10:19:58.170Z,3.97
2022-10-09T10:23:02.240Z,3.88
2022-10-09T10:26:13.389Z,3.70
2022-10-09T10:29:22.669Z,4.22
2022-10-09T10:32:32.436Z,3.60
2022-10-09T10:35:39.570Z,3.45
2022-10-09T10:38:52.334Z,3.13
2022-10-09T10:41:58.406Z,3.40
2022-10-09T10:45:10.622Z,3.75
2022-10-09T10:48:19.145Z,4.00
2022-10-09T10:51:48.807Z,3.58
2022-10-09T10:54:58.911Z,2.97
2022-10-09T10:58:16.346Z,3.45
2022-10-09T11:01:34.369Z,3.00
2022-10-09T11:04:47.641Z,3.08
2022-10-09T11:08:03.549Z,3.08
2022-10-09T11:11:13.462Z,2.83
2022-10-09T11:14:32.182Z,3.45
2022-10-09T11:17:45.760Z,3.95
2022-10-09T11:21:18.957Z,2.88
2022-10-09T11:24:51.452Z,2.80
2022-10-09T11:27:59.977Z,3.25
2022-10-09T11:31:12.169Z,3.63
2022-10-09T11:34:23.160Z,3.75
2022-10-09T11:37:31.197Z,3.40
2022-10-09T11:40:37.952Z,2.47
2022-10-09T11:44:01.512Z,2.70
2022-10-09T11:47:16.470Z,2.47
2022-10-09T11:50:37.799Z,2.08
2022-10-09T11:53:40.943Z,2.83
2022-10-09T11:56:58.031Z,2.92
2022-10-09T12:00:09.967Z,3.05
2022-10-09T12:03:33.255Z,2.92
2022-10-09T12:06:50.359Z,3.03
2022-10-09T12:10:01.759Z,3.10
2022-10-09T12:13:11.189Z,2.67
2022-10-09T12:16:41.066Z,3.03
2022-10-09T12:19:44.901Z,2.88
2022-10-09T12:23:21.351Z,3.08
2022-10-09T12:26:21.816Z,3.40
2022-10-09T12:29:29.908Z,2.72
2022-10-09T12:32:38.439Z,3.17
2022-10-09T12:35:45.901Z,3.65
2022-10-09T12:38:50.435Z,2.80
2022-10-09T12:41:59.883Z,2.30
2022-10-09T12:45:03.274Z,2.58
2022-10-09T12:48:12.978Z,3.38
2022-10-09T12:51:17.845Z,3.17
2022-10-09T12:54:24.931Z,2.88
2022-10-09T12:57:31.233Z,2.72
2022-10-09T13:00:35.612Z,2.88
2022-10-09T13:03:41.431Z,2.80
2022-10-09T13:06:47.491Z,3.13
2022-10-09T13:10:01.347Z,3.00
2022-10-09T13:13:04.364Z,3.13
2022-10-09T13:16:10.876Z,2.47
2022-10-09T13:19:25.949Z,3.13
2022-10-09T13:22:33.712Z,2.38
2022-10-09T13:25:49.396Z,3.15
2022-10-09T13:28:52.716Z,2.92
2022-10-09T13:31:55.784Z,2.80
2022-10-09T13:34:59.131Z,3.35
2022-10-09T13:38:03.072Z,2.60
2022-10-09T13:41:09.924Z,2.90
2022-10-09T13:44:13.005Z,3.25
2022-10-09T13:47:18.635Z,2.90
2022-10-09T13:50:25.456Z,3.15
2022-10-09T13:53:28.641Z,2.75
2022-10-09T13:56:32.950Z,3.30
2022-10-09T13:59:36.956Z,2.63
2022-10-09T14:02:39.869Z,2.92
2022-10-09T14:05:43.103Z,2.95
2022-10-09T14:08:46.100Z,2.67
2022-10-09T14:11:50.371Z,2.47
2022-10-09T14:14:54.276Z,2.78
2022-10-09T14:17:57.392Z,2.65
2022-10-09T14:21:00.369Z,2.90
2022-10-09T14:24:04.535Z,2.70
2022-10-09T14:27:08.941Z,3.03
2022-10-09T14:30:13.707Z,2.50
2022-10-09T14:33:16.760Z,2.08
2022-10-09T14:36:20.863Z,2.55
2022-10-09T14:39:24.264Z,2.22
2022-10-09T14:42:28.508Z,3.30
2022-10-09T14:45:33.030Z,2.97
2022-10-09T14:48:36.819Z,2.60
2022-10-09T14:51:41.250Z,2.55
2022-10-09T14:54:44.161Z,2.50
2022-10-09T14:57:48.510Z,2.67
2022-10-09T15:00:51.456Z,2.78
2022-10-09T15:03:54.587Z,3.33
2022-10-09T15:06:57.617Z,3.13
2022-10-09T15:10:00.580Z,2.47
2022-10-09T15:13:05.172Z,2.90
2022-10-09T15:16:10.510Z,3.22
2022-10-09T15:19:13.444Z,2.80
2022-10-09T15:22:16.351Z,2.97
2022-10-09T15:25:19.318Z,2.95
2022-10-09T15:28:24.016Z,3.15
2022-10-09T15:31:29.847Z,3.00
2022-10-09T15:34:33.545Z,3.88
2022-10-09T15:37:36.607Z,3.55
2022-10-09T15:40:45.715Z,4.32
2022-10-09T15:43:50.210Z,3.30
2022-10-09T15:46:53.178Z,3.17
2022-10-09T15:49:56.110Z,4.32
2022-10-09T15:53:00.297Z,3.42
2022-10-09T15:56:06.562Z,4.90
2022-10-09T15:59:13.059Z,4.18
2022-10-09T16:02:16.062Z,4.70
2022-10-09T16:05:19.058Z,4.10
2022-10-09T16:08:22.018Z,3.17
2022-10-09T16:11:26.529Z,4.50
2022-10-09T16:14:31.531Z,4.25
2022-10-09T16:17:34.521Z,4.23
2022-10-09T16:20:38.802Z,4.82
2022-10-09T16:23:42.541Z,4.40
2022-10-09T16:26:45.860Z,5.33
2022-10-09T16:29:50.184Z,5.50
2022-10-09T16:32:53.666Z,4.73
2022-10-09T16:36:08.339Z,7.03
2022-10-09T16:39:11.428Z,5.40
2022-10-09T16:42:14.582Z,4.63
2022-10-09T16:45:19.033Z,4.50
2022-10-09T16:48:21.991Z,4.67
2022-10-09T16:51:28.738Z,5.07
2022-10-09T16:54:31.694Z,4.50
2022-10-09T16:57:34.722Z,5.03
2022-10-09T17:00:39.053Z,5.57
2022-10-09T17:03:42.476Z,6.03
2022-10-09T17:06:46.463Z,4.83
2022-10-09T17:09:49.453Z,6.53
2022-10-09T17:12:52.375Z,6.27
2022-10-09T17:15:56.621Z,7.80
2022-10-09T17:19:00.777Z,6.83
2022-10-09T17:22:04.201Z,6.23
2022-10-09T17:25:08.047Z,6.60
2022-10-09T17:28:11.008Z,6.20
2022-10-09T17:31:18.196Z,7.37
2022-10-09T17:34:21.253Z,6.37
2022-10-09T17:37:24.191Z,6.23
2022-10-09T17:40:27.158Z,7.97
2022-10-09T17:43:30.128Z,8.30
2022-10-09T17:46:34.455Z,7.77
2022-10-09T17:49:37.793Z,9.30
2022-10-09T17:52:40.841Z,7.53
2022-10-09T17:55:43.968Z,8.17
2022-10-09T17:58:52.353Z,6.10
2022-10-09T18:01:56.910Z,6.30
2022-10-09T18:05:00.018Z,5.90
2022-10-09T18:08:03.048Z,6.77
2022-10-09T18:11:09.817Z,6.73
2022-10-09T18:14:13.312Z,7.80
2022-10-09T18:17:17.967Z,8.60
2022-10-09T18:20:24.766Z,9.47
2022-10-09T18:23:34.040Z,8.63
2022-10-09T18:26:37.342Z,8.13
2022-10-09T18:29:40.422Z,8.20
2022-10-09T18:32:44.690Z,7.70
2022-10-09T18:35:47.670Z,6.40
2022-10-09T18:38:53.552Z,7.20
2022-10-09T18:41:58.193Z,7.23
2022-10-09T18:45:01.542Z,7.67
2022-10-09T18:48:07.786Z,6.60
2022-10-09T18:51:16.463Z,7.30
2022-10-09T18:54:23.210Z,6.13
2022-10-09T18:57:27.488Z,6.77
2022-10-09T19:00:31.398Z,8.10
2022-10-09T19:03:36.582Z,8.37
2022-10-09T19:06:39.915Z,7.27
2022-10-09T19:09:43.367Z,6.63
2022-10-09T19:12:46.424Z,7.10
2022-10-09T19:15:53.312Z,7.03
2022-10-09T19:18:58.207Z,6.53
2022-10-09T19:22:01.392Z,6.97
2022-10-09T19:25:05.621Z,6.33
2022-10-09T19:28:08.714Z,7.20
2022-10-09T19:31:12.867Z,7.77
2022-10-09T19:34:19.374Z,7.93
2022-10-09T19:37:26.047Z,7.03
2022-10-09T19:40:31.968Z,7.20
2022-10-09T19:43:35.561Z,6.73
2022-10-09T19:46:40.130Z,7.30
2022-10-09T19:49:44.524Z,7.33
2022-10-09T19:52:47.755Z,6.90
2022-10-09T19:55:51.073Z,8.00
2022-10-09T19:58:56.009Z,8.20
2022-10-09T20:01:58.960Z,6.30
2022-10-09T20:05:03.242Z,8.17
2022-10-09T20:08:06.396Z,6.97
2022-10-09T20:11:11.400Z,6.43
2022-10-09T20:14:14.651Z,6.07
2022-10-09T20:17:18.132Z,6.50
2022-10-09T20:20:22.435Z,6.63
2022-10-09T20:23:26.191Z,7.03
2022-10-09T20:26:31.356Z,6.77
2022-10-09T20:29:34.298Z,7.07
2022-10-09T20:32:37.331Z,7.30
2022-10-09T20:35:46.109Z,6.93
2022-10-09T20:38:49.137Z,8.10
2022-10-09T20:41:52.134Z,7.37
2022-10-09T20:44:55.462Z,7.53
2022-10-09T20:47:58.480Z,7.37
2022-10-09T20:51:03.088Z,6.27
2022-10-09T20:54:08.550Z,6.40
2022-10-09T20:57:11.737Z,6.73
2022-10-09T21:00:15.272Z,5.83
2022-10-09T21:03:18.260Z,6.40
2022-10-09T21:06:24.099Z,6.33
2022-10-09T21:09:33.130Z,5.70
2022-10-09T21:12:36.631Z,6.17
2022-10-09T21:15:43.734Z,5.83
2022-10-09T21:18:47.823Z,6.90
2022-10-09T21:21:52.104Z,5.53
2022-10-09T21:24:55.226Z,6.47
2022-10-09T21:27:58.153Z,5.97
2022-10-09T21:31:01.174Z,7.47
2022-10-09T21:34:04.247Z,7.00
2022-10-09T21:37:26.298Z,6.17
2022-10-09T21:40:29.587Z,6.20
2022-10-09T21:43:32.917Z,7.27
2022-10-09T21:46:37.588Z,6.60
2022-10-09T21:49:41.747Z,6.97
2022-10-09T21:52:50.706Z,6.30
2022-10-09T21:55:59.663Z,6.13
2022-10-09T21:59:03.255Z,6.00
2022-10-09T22:02:07.894Z,6.80
2022-10-09T22:05:14.379Z,5.90
2022-10-09T22:08:21.290Z,5.57
2022-10-09T22:11:26.504Z,5.63
2022-10-09T22:14:32.710Z,6.73
2022-10-09T22:17:36.350Z,5.90
2022-10-09T22:20:41.861Z,5.57
2022-10-09T22:23:58.237Z,8.80
2022-10-09T22:27:01.418Z,7.67
2022-10-09T22:30:07.536Z,6.23
2022-10-09T22:33:10.455Z,7.83
2022-10-09T22:36:16.429Z,5.73
2022-10-09T22:39:20.754Z,6.13
2022-10-09T22:42:30.648Z,5.70
2022-10-09T22:45:38.508Z,5.00
2022-10-09T22:48:42.336Z,6.40
2022-10-09T22:51:46.152Z,5.53
2022-10-09T22:54:50.496Z,5.10
2022-10-09T22:57:53.461Z,5.30
2022-10-09T23:00:57.062Z,5.07
2022-10-09T23:04:01.104Z,6.40
2022-10-09T23:07:04.405Z,4.83
2022-10-09T23:10:10.067Z,6.20
2022-10-09T23:13:13.298Z,5.23
2022-10-09T23:16:16.838Z,5.50
2022-10-09T23:19:20.067Z,5.50
2022-10-09T23:22:23.038Z,5.93
2022-10-09T23:25:27.308Z,5.67
2022-10-09T23:28:30.498Z,4.87
2022-10-09T23:31:34.686Z,5.47
2022-10-09T23:34:37.704Z,6.00
2022-10-09T23:37:40.660Z,4.77
2022-10-09T23:40:44.951Z,5.07
2022-10-09T23:43:49.579Z,5.13
2022-10-09T23:46:52.515Z,5.73
2022-10-09T23:49:56.168Z,5.17
2022-10-09T23:52:59.392Z,4.80
2022-10-09T23:56:08.031Z,5.57
2022-10-09T23:59:12.526Z,5.53
